Terminal Aerodrome Forecast
Issued by NWS Charleston, WV

Current Version | Previous Version | Text Only | Print | Product List | Glossary Off
Versions: 1 2 3 4 5 6 7 8 9 10 11 12 13 14 15 16 17 18 19 20 21 22 23 24 25 26 27

692
FTUS41 KRLX 210900 AAC
TAFCRW
TAF AMD
KCRW 210900Z 2109/2206 VRB03KT 4SM BR SCT001 OVC030
      TEMPO 2110/2111 1SM BR
     FM211200 21004KT 6SM BR OVC014
     FM211600 24006KT P6SM OVC020
     FM211800 25006KT 5SM SHRA OVC020
     FM212200 31005KT 5SM BR BKN015
     FM220300 32004KT 4SM -DZ BR OVC008=

USA.gov is the U.S. government's official web portal to all federal, state and local government web resources and services.